Time;durP1;ratioP1;P1;durP2;ratioP2;P2;SDS_P1;SDS_P2;PMS_P1;PMS_P2;Temp;Humidity;BMP_temperature;BMP_pressure;BME280_temperature;BME280_humidity;BME280_pressure;Samples;Min_cycle;Max_cycle;Signal;HPM_P1;HPM_P2
2021/03/31 00:01:01;;;;;;;10.00;3.17;;;;;;;7.15;60.56;100030.09;5050218;28;20540;-81
2021/03/31 00:03:28;;;;;;;8.52;3.58;;;;;;;7.15;60.57;100024.66;5038182;28;20088;-81
2021/03/31 00:05:54;;;;;;;6.15;2.67;;;;;;;7.09;60.35;100005.31;5054998;28;20045;-81
2021/03/31 00:08:31;;;;;;;;;;;;;;;;;;;;;
2021/03/31 00:10:59;;;;;;;12.88;3.83;;;;;;;6.95;61.33;100015.69;5090789;22;20036;-81
2021/03/31 00:13:31;;;;;;;7.55;2.88;;;;;;;6.79;61.10;99992.78;5071462;28;20452;-81
2021/03/31 00:15:58;;;;;;;9.20;2.70;;;;;;;6.71;61.30;100003.44;5070850;28;20041;-81
2021/03/31 00:18:26;;;;;;;9.52;3.90;;;;;;;6.65;61.58;100015.63;5070272;28;20102;-81
2021/03/31 00:20:53;;;;;;;6.13;3.35;;;;;;;6.63;61.89;100009.53;5069408;28;20075;-81
2021/03/31 00:23:22;;;;;;;4.28;2.80;;;;;;;6.61;62.02;99994.44;5067014;28;20068;-81
2021/03/31 00:25:50;;;;;;;6.93;3.25;;;;;;;6.66;62.56;100014.66;5056639;28;20057;-81
2021/03/31 00:28:43;;;;;;;6.13;3.25;;;;;;;6.48;62.40;99987.44;5067392;28;20075;-81
2021/03/31 00:31:21;;;;;;;5.30;2.78;;;;;;;6.56;62.59;100005.66;5055781;28;20363;-81
2021/03/31 00:33:48;;;;;;;5.85;3.13;;;;;;;6.60;62.32;99992.75;5054827;28;20303;-81
2021/03/31 00:36:19;;;;;;;5.88;3.00;;;;;;;6.33;62.50;99981.59;5061543;28;20059;-81
2021/03/31 00:38:46;;;;;;;4.70;3.20;;;;;;;6.35;62.80;100003.94;5061457;28;20437;-81
2021/03/31 00:41:13;;;;;;;3.63;2.40;;;;;;;6.28;62.96;100001.88;5053057;28;20477;-81
2021/03/31 00:43:39;;;;;;;6.32;3.00;;;;;;;6.37;62.42;100006.47;5062258;28;20393;-81
2021/03/31 00:46:08;;;;;;;4.47;3.10;;;;;;;6.19;63.29;99995.47;5053757;28;20055;-81
2021/03/31 00:48:34;;;;;;;9.15;3.00;;;;;;;5.99;63.88;99990.00;5066510;28;20388;-81
2021/03/31 00:51:03;;;;;;;4.55;2.88;;;;;;;5.95;63.71;99984.97;5051651;28;20110;-81
2021/03/31 00:53:34;;;;;;;10.25;2.83;;;;;;;5.98;63.40;99979.34;5070063;28;20139;-81
2021/03/31 00:56:01;;;;;;;5.75;3.17;;;;;;;6.18;62.47;99994.59;5068160;28;20099;-81
2021/03/31 00:58:27;;;;;;;7.07;3.13;;;;;;;5.91;63.35;99970.88;5069663;28;20396;-81
2021/03/31 01:00:54;;;;;;;10.98;2.90;;;;;;;5.89;62.83;99980.13;5066808;28;20056;-81
2021/03/31 01:03:25;;;;;;;9.30;3.40;;;;;;;5.80;63.80;99979.91;5062699;28;20040;-81
2021/03/31 01:05:51;;;;;;;8.63;3.20;;;;;;;5.78;63.99;99981.91;5046758;28;20394;-80
2021/03/31 01:08:18;;;;;;;6.97;3.17;;;;;;;5.65;63.99;99965.94;5053946;28;20053;-81
2021/03/31 01:10:49;;;;;;;10.05;3.53;;;;;;;5.81;63.91;99983.47;5059869;28;20397;-81
2021/03/31 01:13:42;;;;;;;8.38;3.42;;;;;;;5.82;63.76;99975.22;5069876;28;20068;-80
2021/03/31 01:16:18;;;;;;;10.43;3.65;;;;;;;5.81;63.89;99978.94;5059869;28;20045;-81
2021/03/31 01:18:51;;;;;;;5.50;2.97;;;;;;;5.77;64.16;99972.09;5048231;28;20053;-80
2021/03/31 01:21:52;;;;;;;7.85;3.90;;;;;;;5.58;63.86;99956.66;5050767;28;20049;-81
2021/03/31 01:24:45;;;;;;;4.28;3.05;;;;;;;5.49;63.87;99954.75;5025977;28;20049;-80
2021/03/31 01:27:17;;;;;;;5.13;2.80;;;;;;;5.54;64.58;99967.84;5050664;28;20049;-80
2021/03/31 01:30:03;;;;;;;5.68;3.08;;;;;;;5.44;64.38;99948.91;5050160;28;20057;-81
2021/03/31 01:32:50;;;;;;;6.05;3.63;;;;;;;5.63;64.57;99978.69;5050994;28;20045;-81
2021/03/31 01:35:20;;;;;;;6.45;3.08;;;;;;;5.36;64.78;99951.41;5044459;28;20099;-81
2021/03/31 01:37:50;;;;;;;7.25;3.47;;;;;;;5.21;65.25;99954.44;5041127;28;20079;-81
2021/03/31 01:40:20;;;;;;;3.55;2.60;;;;;;;5.21;65.17;99932.00;5051806;28;20048;-81
2021/03/31 01:42:51;;;;;;;4.80;3.03;;;;;;;5.15;65.61;99944.19;5056946;28;20051;-82
2021/03/31 01:45:21;;;;;;;6.15;2.65;;;;;;;5.14;65.63;99934.38;5057860;28;20116;-81
2021/03/31 01:47:49;;;;;;;7.85;3.20;;;;;;;5.11;65.96;99945.44;5066508;28;20447;-81
2021/03/31 01:50:17;;;;;;;6.18;2.78;;;;;;;5.14;65.68;99937.09;5061446;28;20052;-80
2021/03/31 01:52:44;;;;;;;10.30;3.42;;;;;;;5.26;65.46;99951.34;5065016;28;20057;-81
2021/03/31 01:55:15;;;;;;;9.35;3.20;;;;;;;5.24;65.50;99938.00;5042705;28;20481;-81
2021/03/31 01:57:43;;;;;;;4.25;2.78;;;;;;;5.32;65.54;99945.44;5069612;28;20052;-81
2021/03/31 02:00:13;;;;;;;8.93;3.30;;;;;;;5.22;65.30;99929.19;5056412;28;20068;-81
2021/03/31 02:02:42;;;;;;;7.50;3.30;;;;;;;5.14;65.78;99950.56;5066544;28;20064;-81
2021/03/31 02:05:10;;;;;;;5.45;3.13;;;;;;;4.93;66.71;99946.00;5063721;28;20052;-81
2021/03/31 02:07:39;;;;;;;3.90;2.83;;;;;;;4.94;65.98;99928.84;5051366;28;20053;-81
2021/03/31 02:10:08;;;;;;;6.43;2.70;;;;;;;5.05;66.25;99932.47;5062289;28;20045;-81
2021/03/31 02:12:35;;;;;;;8.07;3.07;;;;;;;4.89;66.54;99922.13;5032824;28;20054;-81
2021/03/31 02:15:02;;;;;;;6.45;3.13;;;;;;;4.95;66.18;99937.78;5054663;28;20049;-81
2021/03/31 02:17:30;;;;;;;8.07;2.45;;;;;;;4.80;66.26;99918.38;5045965;28;20080;-81
2021/03/31 02:19:58;;;;;;;3.97;2.70;;;;;;;4.77;66.66;99915.94;5061743;28;20450;-81
2021/03/31 02:22:27;;;;;;;9.30;3.20;;;;;;;4.65;66.30;99906.22;5052454;28;20053;-81
2021/03/31 02:24:55;;;;;;;5.55;3.53;;;;;;;4.72;66.26;99910.09;5054316;28;20401;-81
2021/03/31 02:27:22;;;;;;;8.95;3.10;;;;;;;4.71;66.67;99925.41;5044246;28;20072;-81
2021/03/31 02:29:50;;;;;;;5.78;3.20;;;;;;;4.46;67.75;99914.94;5055621;28;20053;-80
2021/03/31 02:32:19;;;;;;;10.55;3.08;;;;;;;4.56;67.74;99937.44;5060501;28;20041;-81
2021/03/31 02:34:46;;;;;;;6.88;3.17;;;;;;;4.77;66.84;99937.50;5051913;28;20056;-80
2021/03/31 02:37:13;;;;;;;5.22;2.75;;;;;;;4.64;67.14;99928.72;5058950;28;20053;-81
2021/03/31 02:39:42;;;;;;;6.20;2.90;;;;;;;4.74;66.75;99917.06;5051853;28;20121;-81
2021/03/31 02:42:13;;;;;;;6.43;2.90;;;;;;;4.77;67.12;99916.81;5067212;28;20052;-81
2021/03/31 02:44:41;;;;;;;5.85;3.33;;;;;;;4.51;66.85;99897.44;5051729;28;20045;-81
2021/03/31 02:47:13;;;;;;;8.90;2.83;;;;;;;4.28;67.47;99903.91;5054321;28;20048;-81
2021/03/31 02:49:43;;;;;;;6.65;3.42;;;;;;;4.32;67.18;99900.81;5064026;28;20071;-80
2021/03/31 02:52:11;;;;;;;5.05;2.85;;;;;;;4.33;67.33;99889.06;5057436;28;20052;-81
2021/03/31 02:54:37;;;;;;;5.10;3.00;;;;;;;4.41;67.41;99899.19;5059642;28;20049;-80
2021/03/31 02:57:04;;;;;;;7.20;3.35;;;;;;;4.34;67.48;99903.38;5071012;28;20053;-81
2021/03/31 02:59:32;;;;;;;7.25;3.80;;;;;;;4.08;68.37;99891.09;5054682;28;20049;-81
2021/03/31 03:01:58;;;;;;;4.07;3.05;;;;;;;4.19;67.76;99892.88;5070111;28;20060;-81
2021/03/31 03:04:25;;;;;;;9.15;3.65;;;;;;;4.22;68.52;99905.25;5058406;28;20040;-81
2021/03/31 03:06:51;;;;;;;6.30;3.35;;;;;;;4.08;68.39;99885.69;5071145;28;20056;-81
2021/03/31 03:09:19;;;;;;;5.28;3.47;;;;;;;3.99;68.33;99874.81;5067529;28;20048;-81
2021/03/31 03:11:45;;;;;;;6.75;3.58;;;;;;;4.08;68.69;99904.53;5059297;28;20044;-81
2021/03/31 03:14:12;;;;;;;8.90;3.28;;;;;;;4.23;67.94;99910.50;5051096;28;20049;-81
2021/03/31 03:16:40;;;;;;;5.22;3.40;;;;;;;4.04;68.38;99886.94;5051011;28;20045;-81
2021/03/31 03:19:06;;;;;;;5.00;3.05;;;;;;;4.07;68.98;99897.44;5039992;28;20057;-81
2021/03/31 03:21:36;;;;;;;4.72;3.38;;;;;;;3.98;69.06;99892.81;5057155;28;20532;-81
2021/03/31 03:24:04;;;;;;;4.45;3.20;;;;;;;3.98;68.37;99890.13;5060940;28;20390;-81
2021/03/31 03:26:31;;;;;;;6.22;3.60;;;;;;;3.98;68.41;99898.19;5053356;28;20060;-81
2021/03/31 03:28:59;;;;;;;4.47;3.25;;;;;;;4.15;67.94;99907.56;5055569;28;20071;-81
2021/03/31 03:31:25;;;;;;;4.85;3.63;;;;;;;4.00;68.21;99890.00;5070819;28;20045;-81
2021/03/31 03:33:53;;;;;;;4.68;3.10;;;;;;;3.94;68.88;99899.41;5051095;28;20056;-81
2021/03/31 03:36:20;;;;;;;5.43;3.28;;;;;;;3.85;69.59;99892.09;5049630;28;20045;-81
2021/03/31 03:38:46;;;;;;;5.70;3.17;;;;;;;3.74;70.00;99905.56;5059911;28;20060;-80
2021/03/31 03:41:13;;;;;;;7.72;3.72;;;;;;;3.63;70.04;99893.81;5052193;28;20083;-81
2021/03/31 03:43:41;;;;;;;6.50;2.95;;;;;;;3.42;70.61;99879.38;5060682;28;20053;-81
2021/03/31 03:46:11;;;;;;;6.80;2.80;;;;;;;3.49;70.55;99872.56;5068249;28;20052;-81
2021/03/31 03:48:38;;;;;;;7.10;3.13;;;;;;;3.69;70.51;99895.19;5049247;28;20045;-80
2021/03/31 03:51:06;;;;;;;5.38;3.10;;;;;;;3.59;70.36;99883.44;5050210;28;20135;-80
2021/03/31 03:53:33;;;;;;;9.05;3.15;;;;;;;3.61;70.64;99903.81;5055801;28;20052;-80
2021/03/31 03:56:01;;;;;;;5.25;3.22;;;;;;;3.46;71.32;99886.25;5061249;28;20463;-81
2021/03/31 03:58:27;;;;;;;5.55;3.45;;;;;;;3.72;70.83;99903.00;5053668;28;20074;-81
2021/03/31 04:00:56;;;;;;;7.15;3.72;;;;;;;3.75;71.17;99897.38;5067493;28;20469;-81
2021/03/31 04:03:22;;;;;;;5.53;3.50;;;;;;;3.67;70.81;99900.69;5059562;28;20080;-81
2021/03/31 04:05:48;;;;;;;8.68;3.90;;;;;;;3.52;71.17;99899.19;5058993;28;20056;-81
2021/03/31 04:08:15;;;;;;;5.45;3.47;;;;;;;3.40;71.12;99881.34;5055510;28;20382;-81
2021/03/31 04:10:44;;;;;;;6.53;3.22;;;;;;;3.52;71.04;99888.44;5058865;28;20406;-80
2021/03/31 04:13:11;;;;;;;8.32;3.78;;;;;;;3.56;70.84;99897.13;5050093;28;20056;-80
2021/03/31 04:15:39;;;;;;;5.43;3.42;;;;;;;3.49;71.83;99896.75;5050121;28;20071;-81
2021/03/31 04:18:07;;;;;;;5.85;3.30;;;;;;;3.48;71.65;99905.81;5055568;28;20099;-81
2021/03/31 04:20:34;;;;;;;8.52;3.97;;;;;;;3.32;71.83;99907.00;5048733;28;20068;-81
2021/03/31 04:23:01;;;;;;;5.00;3.47;;;;;;;3.34;71.83;99897.00;5053499;28;20067;-80
2021/03/31 04:25:28;;;;;;;5.88;3.30;;;;;;;3.27;72.29;99894.91;5060863;28;20049;-81
2021/03/31 04:27:57;;;;;;;6.95;4.03;;;;;;;3.41;71.51;99891.13;5054804;28;20071;-81
2021/03/31 04:30:24;;;;;;;10.90;4.20;;;;;;;3.40;71.34;99894.78;5030120;28;20072;-81
2021/03/31 04:32:53;;;;;;;5.88;3.92;;;;;;;3.43;71.25;99892.69;5040966;28;20480;-81
2021/03/31 04:35:21;;;;;;;10.20;4.15;;;;;;;3.41;71.35;99918.00;5053262;28;20485;-81
2021/03/31 04:37:48;;;;;;;5.05;3.65;;;;;;;3.32;71.32;99898.94;5061102;28;20496;-81
2021/03/31 04:40:16;;;;;;;6.22;3.70;;;;;;;3.27;71.49;99897.59;5054936;28;20049;-80
2021/03/31 04:42:49;;;;;;;7.47;3.97;;;;;;;3.23;73.21;99899.66;5040922;28;20060;-81
2021/03/31 04:45:16;;;;;;;7.70;3.25;;;;;;;3.02;73.33;99894.13;5053372;28;20041;-81
2021/03/31 04:47:42;;;;;;;8.65;3.63;;;;;;;3.13;73.38;99904.03;5063158;28;20052;-81
2021/03/31 04:50:13;;;;;;;6.38;3.42;;;;;;;3.23;72.45;99901.50;5050131;28;20136;-81
2021/03/31 04:52:40;;;;;;;6.88;3.10;;;;;;;3.13;72.78;99888.78;5050116;28;20049;-81
2021/03/31 04:55:12;;;;;;;6.65;3.58;;;;;;;3.06;72.95;99892.06;5049939;28;20068;-80
2021/03/31 04:57:38;;;;;;;8.30;3.67;;;;;;;3.08;73.15;99912.44;5049659;28;20045;-81
2021/03/31 05:00:07;;;;;;;11.50;3.85;;;;;;;3.10;73.29;99921.25;5050888;28;20076;-81
2021/03/31 05:02:33;;;;;;;6.32;3.63;;;;;;;3.12;73.13;99903.19;5050519;28;20135;-81
2021/03/31 05:04:59;;;;;;;5.47;3.50;;;;;;;3.30;72.73;99903.59;5050240;28;20090;-80
2021/03/31 05:07:26;;;;;;;13.13;4.10;;;;;;;3.22;72.32;99894.41;5061107;28;20040;-81
2021/03/31 05:09:52;;;;;;;7.68;3.70;;;;;;;3.27;72.10;99890.38;5058452;28;20045;-81
2021/03/31 05:12:19;;;;;;;7.50;4.60;;;;;;;3.31;72.57;99894.56;5059983;28;20044;-80
2021/03/31 05:14:45;;;;;;;7.97;3.88;;;;;;;3.22;73.21;99887.19;5045468;28;20049;-81
2021/03/31 05:17:13;;;;;;;8.25;4.43;;;;;;;3.10;73.11;99880.09;5056988;28;20037;-80
2021/03/31 05:19:39;;;;;;;6.80;3.92;;;;;;;3.13;73.45;99882.53;5032397;28;20477;-80
2021/03/31 05:22:05;;;;;;;8.27;3.42;;;;;;;3.13;73.17;99871.78;5039791;28;20052;-80
2021/03/31 05:24:32;;;;;;;6.20;3.40;;;;;;;3.39;72.87;99891.25;5058339;28;20068;-80
2021/03/31 05:27:02;;;;;;;8.73;4.03;;;;;;;3.30;73.96;99883.91;5054029;28;20045;-81
2021/03/31 05:29:28;;;;;;;6.57;4.43;;;;;;;3.39;73.44;99885.88;5048348;28;20523;-81
2021/03/31 05:31:54;;;;;;;19.13;5.25;;;;;;;3.38;72.99;99865.34;5054005;28;20049;-81
2021/03/31 05:34:22;;;;;;;6.00;4.03;;;;;;;3.57;72.46;99880.88;5059468;28;20463;-81
2021/03/31 05:36:48;;;;;;;6.38;3.65;;;;;;;3.76;72.50;99887.47;5071467;28;20048;-81
2021/03/31 05:39:14;;;;;;;10.52;4.25;;;;;;;3.77;71.94;99856.91;5062807;28;20143;-81
2021/03/31 05:41:41;;;;;;;7.93;4.05;;;;;;;3.82;72.57;99868.97;5053566;28;20056;-82
2021/03/31 05:44:09;;;;;;;7.97;4.60;;;;;;;3.86;72.35;99877.66;5066728;28;20091;-81
2021/03/31 05:46:39;;;;;;;5.57;4.07;;;;;;;4.06;72.04;99871.53;5060002;28;20048;-80
2021/03/31 05:49:06;;;;;;;12.13;4.03;;;;;;;4.06;71.61;99870.66;5064419;28;20056;-80
2021/03/31 05:51:33;;;;;;;12.48;4.50;;;;;;;3.94;71.64;99848.28;5044403;28;20076;-81
2021/03/31 05:54:00;;;;;;;6.28;3.85;;;;;;;4.12;71.53;99867.47;5052458;28;20179;-80
2021/03/31 05:56:31;;;;;;;7.78;4.32;;;;;;;4.19;71.04;99865.97;5064981;28;20041;-80
2021/03/31 05:59:07;;;;;;;13.18;5.68;;;;;;;4.31;69.79;99841.72;5048633;28;20092;-80
2021/03/31 06:01:34;;;;;;;8.15;4.47;;;;;;;4.70;68.87;99847.44;5050673;28;20516;-81
2021/03/31 06:04:01;;;;;;;13.10;5.07;;;;;;;5.26;67.12;99865.94;5050521;28;20056;-80
2021/03/31 06:06:28;;;;;;;9.25;4.50;;;;;;;5.45;66.27;99867.88;5058618;28;20385;-80
2021/03/31 06:09:05;;;;;;;9.98;4.57;;;;;;;5.57;65.72;99855.16;5066905;28;20053;-80
2021/03/31 06:11:49;;;;;;;10.02;4.78;;;;;;;5.86;64.99;99865.19;5051141;28;20129;-80
2021/03/31 06:14:28;;;;;;;9.95;4.57;;;;;;;5.81;64.56;99848.53;5063846;28;20086;-81
2021/03/31 06:17:11;;;;;;;7.03;4.37;;;;;;;5.95;64.40;99840.06;5061525;28;20076;-82
2021/03/31 06:19:41;;;;;;;10.85;5.10;;;;;;;6.17;63.53;99848.94;5057160;28;20131;-82
2021/03/31 06:22:18;;;;;;;12.73;4.72;;;;;;;6.44;63.31;99866.31;5055929;28;20499;-80
2021/03/31 06:25:01;;;;;;;11.23;4.50;;;;;;;6.59;62.97;99855.94;5051834;28;20045;-80
2021/03/31 06:27:29;;;;;;;14.20;4.45;;;;;;;6.87;62.68;99868.59;5049961;28;20049;-80
2021/03/31 06:30:04;;;;;;;9.82;5.03;;;;;;;7.21;61.52;99865.41;5051246;28;20055;-78
2021/03/31 06:32:36;;;;;;;12.77;7.55;;;;;;;7.17;61.49;99852.34;5052278;28;20080;-78
2021/03/31 06:35:27;;;;;;;7.43;4.03;;;;;;;7.74;60.19;99866.66;5050002;28;20049;-80
2021/03/31 06:38:08;;;;;;;8.55;4.65;;;;;;;8.34;58.35;99849.06;5032144;28;20057;-81
2021/03/31 06:40:41;;;;;;;9.65;4.75;;;;;;;8.70;57.69;99850.94;5049337;28;20045;-81
2021/03/31 06:43:13;;;;;;;13.05;5.15;;;;;;;9.07;56.94;99868.88;5052213;28;20106;-81
2021/03/31 06:45:46;;;;;;;20.08;4.50;;;;;;;8.39;57.97;99852.16;5054438;28;20044;-81
2021/03/31 06:48:16;;;;;;;19.42;4.70;;;;;;;8.72;58.05;99852.50;5072023;28;20572;-80
2021/03/31 06:51:19;;;;;;;14.25;5.80;;;;;;;8.94;58.27;99869.28;5063006;28;20094;-81
2021/03/31 06:53:49;;;;;;;23.40;7.75;;;;;;;8.89;58.70;99864.31;5049793;28;20049;-81
2021/03/31 06:56:39;;;;;;;21.85;8.15;;;;;;;9.12;58.12;99861.09;5057409;28;20048;-81
2021/03/31 06:59:32;;;;;;;16.42;6.38;;;;;;;9.38;57.55;99863.84;5041547;28;20052;-81
2021/03/31 07:02:01;;;;;;;22.73;7.32;;;;;;;9.10;58.32;99847.69;5056429;28;20049;-81
2021/03/31 07:04:27;;;;;;;19.70;7.47;;;;;;;9.12;59.12;99867.41;5051187;28;20055;-81
2021/03/31 07:07:41;;;;;;;15.90;6.72;;;;;;;8.99;59.12;99864.25;5057888;28;20051;-81
2021/03/31 07:13:10;;;;;;;16.85;7.57;;;;;;;9.21;58.85;99855.59;5028180;28;20166;-80
2021/03/31 07:16:03;;;;;;;20.17;7.43;;;;;;;9.41;58.18;99857.22;5028349;28;20045;-81
2021/03/31 07:18:57;;;;;;;19.35;7.57;;;;;;;9.51;58.51;99856.09;5028871;28;20049;-80
2021/03/31 07:21:58;;;;;;;16.67;5.80;;;;;;;9.39;58.95;99832.97;5033166;28;20049;-80
2021/03/31 07:24:25;;;;;;;17.38;7.00;;;;;;;9.60;58.99;99845.28;5025127;28;20081;-81
2021/03/31 07:26:51;;;;;;;23.52;9.00;;;;;;;9.62;58.91;99830.56;5052435;28;20052;-81
2021/03/31 07:29:19;;;;;;;15.13;6.28;;;;;;;9.88;57.95;99825.03;5060206;28;20051;-80
2021/03/31 07:31:47;;;;;;;18.50;7.43;;;;;;;10.18;57.01;99841.78;5072069;28;20510;-81
2021/03/31 07:34:25;;;;;;;14.20;7.00;;;;;;;10.05;57.45;99830.53;5068434;28;20127;-80
2021/03/31 07:36:54;;;;;;;18.77;6.25;;;;;;;10.31;57.28;99841.28;5051361;28;20053;-81
2021/03/31 07:39:25;;;;;;;21.75;5.85;;;;;;;10.48;57.36;99849.50;5053843;28;20098;-81
2021/03/31 07:41:53;;;;;;;23.75;6.40;;;;;;;10.48;57.09;99823.19;5037653;28;20379;-80
2021/03/31 07:44:25;;;;;;;22.38;5.72;;;;;;;11.00;56.56;99838.31;5032014;28;20049;-80
2021/03/31 07:46:55;;;;;;;43.83;15.02;;;;;;;11.22;56.55;99831.31;5051564;28;20057;-80
2021/03/31 07:49:27;;;;;;;;;;;;;;;11.51;56.40;99840.78;5049748;28;20045;-80
2021/03/31 07:51:59;;;;;;;30.58;13.43;;;;;;;11.65;56.15;99831.91;5051456;28;19920;-81
2021/03/31 07:54:26;;;;;;;15.40;6.63;;;;;;;11.77;56.59;99832.38;5050379;28;20063;-80
2021/03/31 07:56:54;;;;;;;15.50;5.35;;;;;;;12.07;54.76;99839.91;5051985;28;20187;-80
2021/03/31 07:59:22;;;;;;;16.63;5.88;;;;;;;12.05;54.56;99821.03;5045455;28;20041;-82
2021/03/31 08:01:50;;;;;;;25.67;5.85;;;;;;;12.14;54.74;99843.63;5056199;28;20049;-82
2021/03/31 08:04:19;;;;;;;23.40;6.25;;;;;;;12.16;54.49;99819.75;5056512;28;20052;-81
2021/03/31 08:06:46;;;;;;;15.63;6.20;;;;;;;12.35;52.64;99827.47;5053645;28;20107;-81
2021/03/31 08:09:20;;;;;;;15.77;6.57;;;;;;;12.68;51.88;99837.31;5051895;28;20111;-81
2021/03/31 08:11:52;;;;;;;13.27;5.57;;;;;;;12.80;52.05;99813.19;5054270;28;20041;-81
2021/03/31 08:14:50;;;;;;;13.38;5.88;;;;;;;13.16;51.46;99826.16;5059816;28;20053;-81
2021/03/31 08:17:17;;;;;;;17.88;6.53;;;;;;;13.37;51.52;99826.31;5036452;28;20045;-81
2021/03/31 08:19:46;;;;;;;14.70;6.88;;;;;;;13.39;51.62;99829.69;5068874;28;20044;-81
2021/03/31 08:22:38;;;;;;;10.05;5.47;;;;;;;13.45;49.91;99830.84;5069795;28;20060;-80
2021/03/31 08:25:21;;;;;;;17.67;5.32;;;;;;;13.65;50.44;99828.38;5044782;28;20087;-80
2021/03/31 08:27:59;;;;;;;15.32;6.88;;;;;;;13.81;50.44;99827.34;5050546;28;20131;-81
2021/03/31 08:30:27;;;;;;;16.80;6.60;;;;;;;14.09;48.99;99826.63;5064658;28;20463;-81
2021/03/31 08:32:58;;;;;;;25.02;7.97;;;;;;;14.26;47.40;99811.72;5033405;28;20099;-81
2021/03/31 08:35:25;;;;;;;17.23;7.15;;;;;;;14.42;47.38;99804.28;5044608;28;20053;-81
2021/03/31 08:37:53;;;;;;;12.82;6.53;;;;;;;14.65;48.22;99804.16;5068849;28;20055;-81
2021/03/31 08:40:20;;;;;;;16.85;6.70;;;;;;;14.92;48.21;99815.31;5068462;28;20040;-81
2021/03/31 08:42:52;;;;;;;16.63;7.03;;;;;;;15.07;45.78;99815.25;5070193;28;20052;-82
2021/03/31 08:45:31;;;;;;;16.15;7.03;;;;;;;15.19;44.07;99817.25;5066556;28;20051;-80
2021/03/31 08:47:59;;;;;;;13.10;6.38;;;;;;;15.30;45.39;99809.53;5055358;28;20063;-80
2021/03/31 08:50:34;;;;;;;15.80;7.00;;;;;;;15.36;44.72;99801.34;5048492;28;20461;-81
2021/03/31 08:53:13;;;;;;;16.35;6.55;;;;;;;15.40;44.58;99799.03;5030320;28;20049;-81
2021/03/31 08:55:41;;;;;;;16.75;6.07;;;;;;;15.54;43.45;99798.09;5030804;28;20057;-81
2021/03/31 08:58:09;;;;;;;23.33;9.00;;;;;;;15.64;42.29;99803.22;5030513;28;20053;-80
2021/03/31 09:00:43;;;;;;;16.42;7.78;;;;;;;15.72;41.45;99797.56;5045875;28;20440;-81
2021/03/31 09:03:10;;;;;;;14.77;7.20;;;;;;;15.75;40.86;99805.38;5041483;28;20293;-81
2021/03/31 09:05:37;;;;;;;14.70;7.50;;;;;;;15.88;42.00;99807.38;5030085;28;20049;-81
2021/03/31 09:08:03;;;;;;;15.15;7.47;;;;;;;16.01;41.47;99811.22;5058664;28;20056;-81
2021/03/31 09:14:23;;;;;;;14.68;7.25;;;;;;;16.21;41.27;99794.81;5051258;28;20401;-80
2021/03/31 09:16:57;;;;;;;22.48;7.03;;;;;;;16.23;40.87;99788.09;5051235;28;20045;-80
2021/03/31 09:19:26;;;;;;;24.60;7.88;;;;;;;16.37;41.16;99777.16;5043114;28;20063;-81
2021/03/31 09:21:54;;;;;;;17.02;7.03;;;;;;;16.54;40.60;99797.63;5049347;28;20115;-81
2021/03/31 09:24:25;;;;;;;40.08;9.07;;;;;;;16.53;40.14;99773.16;5048887;28;20048;-80
2021/03/31 09:27:00;;;;;;;15.00;7.43;;;;;;;16.68;41.58;99779.31;5049708;28;20115;-81
2021/03/31 09:29:28;;;;;;;18.55;7.53;;;;;;;16.85;41.05;99790.72;5043718;28;20131;-80
2021/03/31 09:32:00;;;;;;;19.15;8.23;;;;;;;16.86;41.88;99769.56;5050208;28;20065;-81
2021/03/31 09:34:27;;;;;;;19.27;8.05;;;;;;;17.05;39.10;99782.50;5051046;28;20056;-81
2021/03/31 09:37:03;;;;;;;14.23;7.80;;;;;;;17.10;39.51;99768.13;5050781;28;20053;-80
2021/03/31 09:39:50;;;;;;;15.70;8.20;;;;;;;17.23;38.95;99761.78;5051269;28;20397;-80
2021/03/31 09:42:22;;;;;;;21.88;8.15;;;;;;;17.33;39.58;99754.78;5049059;28;20281;-81
2021/03/31 09:44:53;;;;;;;21.67;9.38;;;;;;;17.37;39.06;99748.84;5049291;28;20409;-81
2021/03/31 09:47:21;;;;;;;13.27;7.32;;;;;;;17.54;36.79;99766.56;5049459;28;20064;-80
2021/03/31 09:49:50;;;;;;;23.17;8.43;;;;;;;17.56;36.24;99760.84;5048246;28;20049;-80
2021/03/31 09:52:25;;;;;;;16.50;7.23;;;;;;;17.69;38.23;99760.81;5049435;28;20481;-81
2021/03/31 09:54:53;;;;;;;15.70;6.82;;;;;;;17.80;37.26;99757.38;5042924;28;20299;-81
2021/03/31 09:57:33;;;;;;;16.70;7.63;;;;;;;17.96;34.90;99769.84;5052714;28;20048;-81
2021/03/31 10:03:13;;;;;;;14.23;7.53;;;;;;;18.11;35.77;99752.19;5051004;28;20053;-81
2021/03/31 10:05:40;;;;;;;20.75;7.75;;;;;;;18.20;37.14;99750.84;5047178;28;20045;-80
2021/03/31 10:08:10;;;;;;;15.23;7.63;;;;;;;18.29;36.45;99746.81;5066900;28;20053;-80
2021/03/31 10:11:09;;;;;;;16.30;8.68;;;;;;;18.28;34.98;99734.09;5050637;28;20091;-80
2021/03/31 10:13:36;;;;;;;23.38;8.38;;;;;;;18.45;36.05;99739.91;5051802;28;20049;-80
2021/03/31 10:16:07;;;;;;;24.58;8.43;;;;;;;18.51;36.60;99747.28;5052003;28;20060;-80
2021/03/31 10:18:37;;;;;;;20.48;7.82;;;;;;;18.58;35.53;99733.47;5052668;28;20195;-80
2021/03/31 10:21:06;;;;;;;16.13;7.10;;;;;;;18.61;36.45;99730.28;5051989;28;20119;-80
2021/03/31 10:23:34;;;;;;;14.57;7.60;;;;;;;18.85;33.82;99734.13;5052127;28;20045;-80
2021/03/31 10:26:17;;;;;;;15.02;7.72;;;;;;;18.83;33.87;99716.09;5052073;28;20099;-80
2021/03/31 10:28:46;;;;;;;17.23;7.72;;;;;;;18.98;34.80;99719.38;5052127;28;20056;-80
2021/03/31 10:31:21;;;;;;;15.05;7.85;;;;;;;19.04;33.28;99715.69;5051311;28;20136;-80
2021/03/31 10:33:48;;;;;;;17.95;8.48;;;;;;;19.03;34.70;99710.41;5051584;28;20045;-80
2021/03/31 10:36:52;;;;;;;15.77;7.82;;;;;;;19.12;34.91;99711.84;5051138;28;20122;-80
2021/03/31 10:51:23;;;;;;;17.50;8.45;;;;;;;19.21;32.87;99687.56;4969474;28;20073;-80
2021/03/31 10:53:55;;;;;;;17.92;8.15;;;;;;;19.23;32.86;99683.50;5030929;28;20059;-80
2021/03/31 10:59:29;;;;;;;13.45;7.47;;;;;;;19.35;31.26;99691.84;5054999;28;20097;-80
2021/03/31 11:01:58;;;;;;;19.17;8.05;;;;;;;19.41;31.28;99684.59;5034060;28;20057;-80
2021/03/31 11:04:25;;;;;;;26.75;9.63;;;;;;;19.60;32.54;99685.41;5043539;28;20106;-80
2021/03/31 11:06:51;;;;;;;16.58;8.27;;;;;;;19.73;34.18;99673.38;5053247;28;20057;-80
2021/03/31 11:09:18;;;;;;;15.68;8.15;;;;;;;20.00;33.99;99682.16;5053837;28;20048;-80
2021/03/31 11:11:48;;;;;;;16.23;8.05;;;;;;;20.18;30.68;99674.91;5053048;28;20126;-79
2021/03/31 11:14:16;;;;;;;16.02;7.45;;;;;;;20.07;31.26;99666.34;5052058;28;20053;-80
2021/03/31 11:16:50;;;;;;;16.75;9.05;;;;;;;20.25;31.31;99675.59;5107810;22;20049;-80
2021/03/31 11:27:51;;;;;;;19.90;8.68;;;;;;;20.64;29.11;99649.28;5055249;28;20055;-80
2021/03/31 11:30:24;;;;;;;17.10;8.32;;;;;;;20.69;28.99;99660.47;5051049;28;20512;-80
2021/03/31 11:33:14;;;;;;;19.65;8.75;;;;;;;20.75;30.17;99642.09;5058059;28;20268;-80
2021/03/31 11:35:41;;;;;;;13.05;7.78;;;;;;;20.82;28.66;99653.88;5062005;28;20055;-80
2021/03/31 11:38:10;;;;;;;19.27;8.40;;;;;;;20.87;27.50;99650.38;5070896;28;20562;-80
2021/03/31 11:40:36;;;;;;;18.70;8.95;;;;;;;20.91;26.58;99650.75;5072610;28;20059;-80
2021/03/31 11:43:06;;;;;;;16.50;8.07;;;;;;;21.05;29.61;99638.38;5072403;28;20398;-80
2021/03/31 11:45:32;;;;;;;15.27;7.85;;;;;;;21.06;25.60;99628.97;5074432;28;20420;-80
2021/03/31 11:48:40;;;;;;;17.58;8.02;;;;;;;21.10;25.63;99630.16;5087147;28;20040;-80
2021/03/31 11:51:08;;;;;;;14.85;7.88;;;;;;;21.30;27.81;99623.41;5072540;28;20056;-79
2021/03/31 11:53:37;;;;;;;13.75;7.43;;;;;;;21.47;26.08;99624.31;5088114;28;20047;-79
2021/03/31 11:56:04;;;;;;;14.05;6.88;;;;;;;21.47;26.17;99613.25;5076123;28;20040;-79
2021/03/31 11:58:31;;;;;;;19.02;8.80;;;;;;;21.55;25.31;99614.81;5052344;28;20048;-79
2021/03/31 12:00:58;;;;;;;14.48;7.93;;;;;;;21.71;25.45;99629.81;5058432;28;20060;-79
2021/03/31 12:03:24;;;;;;;12.68;6.30;;;;;;;21.74;24.43;99616.31;5072469;28;20106;-78
2021/03/31 12:06:01;;;;;;;14.52;7.00;;;;;;;21.80;23.68;99611.72;5074722;28;20056;-79
2021/03/31 12:08:27;;;;;;;14.75;6.97;;;;;;;22.07;23.55;99620.22;5072645;28;20110;-79
2021/03/31 12:10:56;;;;;;;13.48;6.28;;;;;;;22.20;24.08;99621.81;5072057;28;20077;-79
2021/03/31 12:13:23;;;;;;;12.73;6.37;;;;;;;22.11;22.26;99601.19;5070595;28;20411;-79
2021/03/31 12:15:50;;;;;;;15.05;7.30;;;;;;;22.12;22.74;99591.78;5070272;28;20053;-79
2021/03/31 12:18:17;;;;;;;11.82;6.38;;;;;;;22.42;23.77;99607.28;5067601;28;20511;-79
2021/03/31 12:20:45;;;;;;;15.32;5.57;;;;;;;22.32;22.40;99601.56;5064365;28;20048;-79
2021/03/31 12:23:12;;;;;;;11.30;5.22;;;;;;;22.25;21.34;99574.00;5065416;28;20051;-80
2021/03/31 12:25:38;;;;;;;8.48;5.00;;;;;;;22.20;21.22;99593.31;5060061;28;20048;-80
2021/03/31 12:28:05;;;;;;;11.68;5.90;;;;;;;22.25;21.39;99583.16;5070416;28;20123;-80